Time;durP1;ratioP1;P1;durP2;ratioP2;P2;SDS_P1;SDS_P2;PMS_P1;PMS_P2;Temp;Humidity;BMP_temperature;BMP_pressure;BME280_temperature;BME280_humidity;BME280_pressure;Samples;Min_cycle;Max_cycle;Signal;HPM_P1;HPM_P2
2022/11/21 00:01:18;;;;;;;6.20;2.88;;;;;;;8.00;100.00;100436.50;5245619;28;20531;-68
2022/11/21 00:03:49;;;;;;;8.30;3.03;;;;;;;7.74;100.00;100443.78;5242966;28;20241;-68
2022/11/21 00:06:22;;;;;;;9.23;3.60;;;;;;;7.71;100.00;100444.03;5249058;28;20104;-68
2022/11/21 00:08:54;;;;;;;11.68;3.70;;;;;;;7.73;100.00;100448.19;5249431;28;20024;-68
2022/11/21 00:11:26;;;;;;;7.93;2.92;;;;;;;7.70;100.00;100453.63;5245360;28;20042;-68
2022/11/21 00:13:57;;;;;;;8.80;3.70;;;;;;;7.64;100.00;100448.88;5243784;28;20390;-68
2022/11/21 00:16:28;;;;;;;9.05;4.20;;;;;;;7.61;100.00;100454.34;5245485;28;20033;-68
2022/11/21 00:18:59;;;;;;;10.70;3.50;;;;;;;7.59;100.00;100445.81;5247143;28;20030;-68
2022/11/21 00:21:31;;;;;;;12.70;4.63;;;;;;;7.60;100.00;100457.91;5249426;28;20720;-68
2022/11/21 00:24:02;;;;;;;12.55;4.65;;;;;;;7.59;100.00;100476.28;5248651;28;20074;-68
2022/11/21 00:26:33;;;;;;;13.82;4.50;;;;;;;7.57;100.00;100458.97;5248752;28;20403;-68
2022/11/21 00:29:04;;;;;;;14.77;4.25;;;;;;;7.61;100.00;100459.53;5247148;28;20063;-68
2022/11/21 00:31:36;;;;;;;15.43;3.38;;;;;;;7.58;100.00;100452.00;5250436;28;20064;-68
2022/11/21 00:34:08;;;;;;;12.20;3.35;;;;;;;7.61;100.00;100456.94;5247504;28;20348;-68
2022/11/21 00:36:39;;;;;;;14.82;4.10;;;;;;;7.61;100.00;100459.53;5244531;28;20459;-68
2022/11/21 00:39:10;;;;;;;12.18;3.75;;;;;;;7.57;100.00;100453.75;5243870;28;20116;-68
2022/11/21 00:41:42;;;;;;;15.13;3.92;;;;;;;7.54;100.00;100447.97;5244472;28;20026;-68
2022/11/21 00:44:13;;;;;;;13.77;4.03;;;;;;;7.55;100.00;100444.41;5243218;28;20018;-68
2022/11/21 00:46:44;;;;;;;11.40;3.63;;;;;;;7.54;100.00;100443.59;5243175;28;20087;-68
2022/11/21 00:49:15;;;;;;;15.10;4.10;;;;;;;7.53;100.00;100446.28;5243043;28;20037;-68
2022/11/21 00:51:47;;;;;;;11.05;4.07;;;;;;;7.52;100.00;100447.25;5246489;28;20051;-68
2022/11/21 00:54:18;;;;;;;10.57;3.58;;;;;;;7.51;100.00;100451.63;5241900;28;20014;-68
2022/11/21 00:56:49;;;;;;;12.98;4.70;;;;;;;7.45;100.00;100449.50;5244872;28;20017;-68
2022/11/21 00:59:21;;;;;;;12.55;4.13;;;;;;;7.47;100.00;100449.41;5243128;28;20025;-68
2022/11/21 01:01:52;;;;;;;14.00;3.78;;;;;;;7.46;100.00;100437.28;5242636;28;20025;-68
2022/11/21 01:04:23;;;;;;;9.30;3.45;;;;;;;7.39;100.00;100443.97;5246800;28;20040;-68
2022/11/21 01:06:54;;;;;;;14.15;3.90;;;;;;;7.36;100.00;100447.63;5245032;28;20030;-68
2022/11/21 01:09:27;;;;;;;11.40;2.83;;;;;;;7.28;100.00;100450.00;5243055;28;20029;-68
2022/11/21 01:11:58;;;;;;;17.25;4.40;;;;;;;7.25;100.00;100455.44;5241511;28;20039;-68
2022/11/21 01:14:29;;;;;;;10.60;2.95;;;;;;;7.23;100.00;100462.53;5248956;28;20534;-68
2022/11/21 01:17:01;;;;;;;10.15;2.85;;;;;;;7.18;100.00;100457.69;5241732;28;20474;-68
2022/11/21 01:19:32;;;;;;;14.13;3.40;;;;;;;7.19;100.00;100458.50;5243143;28;20470;-68
2022/11/21 01:22:03;;;;;;;10.73;3.10;;;;;;;7.16;100.00;100453.53;5245881;28;20485;-68
2022/11/21 01:24:34;;;;;;;11.75;3.20;;;;;;;7.17;100.00;100455.19;5250490;28;20128;-68
2022/11/21 01:27:06;;;;;;;12.55;3.72;;;;;;;7.18;100.00;100454.25;5243582;28;20402;-68
2022/11/21 01:29:37;;;;;;;10.55;3.70;;;;;;;7.17;100.00;100455.19;5232499;28;20029;-68
2022/11/21 01:32:08;;;;;;;10.98;3.30;;;;;;;7.14;100.00;100447.63;5240028;28;20567;-68
2022/11/21 01:34:40;;;;;;;12.95;3.20;;;;;;;7.11;100.00;100443.47;5241440;28;20118;-68
2022/11/21 01:37:11;;;;;;;13.15;3.90;;;;;;;7.13;100.00;100438.97;5242719;28;20029;-68
2022/11/21 01:39:42;;;;;;;8.85;2.85;;;;;;;7.10;100.00;100448.81;5239772;28;20028;-68
2022/11/21 01:42:13;;;;;;;10.63;3.33;;;;;;;7.07;100.00;100444.66;5245593;28;20033;-68
2022/11/21 01:44:49;;;;;;;8.77;2.50;;;;;;;7.16;100.00;100449.16;5241249;28;20053;-67
2022/11/21 01:47:21;;;;;;;7.78;2.58;;;;;;;7.05;100.00;100446.56;5239183;28;20025;-68
2022/11/21 01:49:53;;;;;;;10.50;2.77;;;;;;;7.06;100.00;100445.59;5242727;28;20112;-68
2022/11/21 01:52:30;;;;;;;6.95;2.38;;;;;;;7.11;100.00;100450.44;5237581;28;20469;-68
2022/11/21 01:55:08;;;;;;;9.77;3.38;;;;;;;7.07;100.00;100445.47;5251966;28;21095;-68
2022/11/21 01:57:42;;;;;;;7.60;3.05;;;;;;;6.89;100.00;100448.63;5241414;28;20025;-68
2022/11/21 02:00:21;;;;;;;10.98;3.47;;;;;;;6.91;100.00;100441.56;5245594;28;20032;-68
2022/11/21 02:02:57;;;;;;;7.60;2.70;;;;;;;6.74;100.00;100435.00;5248585;28;20025;-69
2022/11/21 02:05:33;;;;;;;8.98;2.95;;;;;;;6.72;100.00;100442.13;5247711;28;20025;-68
2022/11/21 02:08:13;;;;;;;9.60;3.00;;;;;;;6.76;100.00;100444.38;5242148;28;20048;-68
2022/11/21 02:10:58;;;;;;;8.57;2.50;;;;;;;6.75;100.00;100447.09;5244812;28;20037;-68
2022/11/21 02:13:30;;;;;;;11.82;2.90;;;;;;;6.55;100.00;100445.97;5244172;28;20031;-67
2022/11/21 02:16:01;;;;;;;9.02;2.92;;;;;;;6.51;100.00;100445.34;5247591;28;20025;-68
2022/11/21 02:18:32;;;;;;;13.00;3.08;;;;;;;6.52;100.00;100452.25;5243894;28;20040;-67
2022/11/21 02:21:19;;;;;;;7.28;2.67;;;;;;;6.66;100.00;100466.00;5240511;28;20113;-68
2022/11/21 02:24:00;;;;;;;10.57;2.80;;;;;;;6.44;100.00;100458.94;5244425;28;20025;-68
2022/11/21 02:26:32;;;;;;;10.23;4.20;;;;;;;6.39;100.00;100464.47;5221589;28;20026;-68
2022/11/21 02:29:03;;;;;;;8.85;3.42;;;;;;;6.29;100.00;100469.56;5241546;28;20482;-68
2022/11/21 02:31:35;;;;;;;11.48;3.13;;;;;;;6.28;100.00;100459.25;5242623;28;20379;-68
2022/11/21 02:34:06;;;;;;;9.30;3.05;;;;;;;6.27;100.00;100460.19;5240772;28;20386;-68
2022/11/21 02:36:41;;;;;;;7.88;3.05;;;;;;;6.29;100.00;100458.31;5242579;28;20504;-68
2022/11/21 02:39:28;;;;;;;8.50;3.15;;;;;;;6.25;100.00;100452.50;5242585;28;20075;-68
2022/11/21 02:42:08;;;;;;;8.75;3.67;;;;;;;6.31;100.00;100456.41;5241341;28;20033;-68
2022/11/21 02:44:51;;;;;;;8.13;3.50;;;;;;;6.31;100.00;100462.44;5265145;22;20037;-69
2022/11/21 02:47:23;;;;;;;7.13;3.20;;;;;;;6.18;100.00;100461.69;5251979;28;20056;-68
2022/11/21 02:50:12;;;;;;;7.28;3.58;;;;;;;6.40;100.00;100465.31;5253386;28;20029;-68
2022/11/21 02:52:43;;;;;;;10.27;3.80;;;;;;;6.17;100.00;100465.22;5254076;28;20473;-68
2022/11/21 02:55:14;;;;;;;11.40;4.03;;;;;;;6.19;100.00;100462.53;5247561;28;20029;-68
2022/11/21 02:57:46;;;;;;;9.63;4.82;;;;;;;6.23;100.00;100463.94;5240324;28;20079;-68
2022/11/21 03:00:17;;;;;;;9.90;5.03;;;;;;;6.23;100.00;100456.16;5246685;28;20025;-69
2022/11/21 03:02:49;;;;;;;26.02;6.78;;;;;;;6.22;100.00;100457.09;5236263;28;20033;-67
2022/11/21 03:05:21;;;;;;;15.15;6.18;;;;;;;6.15;100.00;100450.69;5237568;28;20032;-69
2022/11/21 03:07:52;;;;;;;31.52;6.70;;;;;;;6.20;100.00;100464.16;5244625;28;20033;-68
2022/11/21 03:10:24;;;;;;;31.85;7.70;;;;;;;6.28;100.00;100467.03;5248464;28;20037;-68
2022/11/21 03:12:59;;;;;;;34.53;9.10;;;;;;;6.27;100.00;100465.38;5240483;28;20136;-68
2022/11/21 03:15:33;;;;;;;30.08;9.40;;;;;;;6.31;100.00;100454.63;5236889;28;20548;-68
2022/11/21 03:18:04;;;;;;;53.85;9.55;;;;;;;6.26;100.00;100454.16;5239229;28;20072;-68
2022/11/21 03:20:35;;;;;;;86.43;13.35;;;;;;;6.23;100.00;100454.38;5245452;28;20029;-67
2022/11/21 03:23:07;;;;;;;64.25;13.07;;;;;;;6.27;100.00;100465.38;5243936;28;20045;-67
2022/11/21 03:25:38;;;;;;;57.58;14.25;;;;;;;6.25;100.00;100455.09;5238175;28;20076;-68
2022/11/21 03:28:09;;;;;;;46.67;13.60;;;;;;;6.19;100.00;100434.72;5238934;28;20031;-68
2022/11/21 03:30:40;;;;;;;73.88;16.25;;;;;;;6.24;100.00;100443.03;5237799;28;20029;-68
2022/11/21 03:33:12;;;;;;;70.78;15.00;;;;;;;6.26;100.00;100451.56;5243063;28;20102;-69
2022/11/21 03:35:43;;;;;;;45.83;15.85;;;;;;;6.23;100.00;100446.56;5240728;28;20610;-69
2022/11/21 03:38:14;;;;;;;93.13;18.23;;;;;;;6.15;100.00;100454.09;5242842;28;20021;-68
2022/11/21 03:40:45;;;;;;;50.55;17.17;;;;;;;6.17;100.00;100454.81;5245003;28;20054;-69
2022/11/21 03:43:17;;;;;;;84.18;18.45;;;;;;;6.15;100.00;100440.28;5244672;28;20029;-68
2022/11/21 03:45:48;;;;;;;83.55;18.58;;;;;;;6.14;100.00;100444.66;5240673;28;20049;-69
2022/11/21 03:48:19;;;;;;;72.57;18.58;;;;;;;6.08;100.00;100439.88;5242153;28;20035;-68
2022/11/21 03:50:50;;;;;;;72.35;18.77;;;;;;;6.09;100.00;100444.97;5242374;28;20048;-68
2022/11/21 03:53:22;;;;;;;86.78;17.95;;;;;;;6.06;100.00;100445.22;5240776;28;20413;-69
2022/11/21 03:55:53;;;;;;;77.97;19.50;;;;;;;6.04;100.00;100449.69;5238403;28;20544;-68
2022/11/21 03:58:24;;;;;;;53.92;18.02;;;;;;;6.07;100.00;100452.06;5244888;28;20478;-68
2022/11/21 04:00:56;;;;;;;64.20;19.00;;;;;;;6.08;100.00;100460.69;5243173;28;20483;-69
2022/11/21 04:03:27;;;;;;;60.78;18.40;;;;;;;6.07;100.00;100459.03;5247400;28;20025;-68
2022/11/21 04:05:59;;;;;;;74.15;18.50;;;;;;;6.06;100.00;100466.00;5246120;28;20539;-68
2022/11/21 04:08:31;;;;;;;76.47;17.92;;;;;;;6.07;100.00;100457.25;5245509;28;20048;-68
2022/11/21 04:11:02;;;;;;;44.42;17.10;;;;;;;6.09;100.00;100449.34;5247745;28;20029;-68
2022/11/21 04:13:34;;;;;;;115.72;19.10;;;;;;;6.08;100.00;100443.31;5229562;28;20067;-68
2022/11/21 04:16:06;;;;;;;67.43;15.75;;;;;;;6.05;100.00;100448.72;5242100;28;20061;-68
2022/11/21 04:18:37;;;;;;;72.22;18.13;;;;;;;6.04;100.00;100454.88;5246675;28;20029;-68
2022/11/21 04:21:08;;;;;;;74.03;18.02;;;;;;;6.16;100.00;100457.53;5241840;28;20112;-67
2022/11/21 04:23:40;;;;;;;79.68;17.83;;;;;;;6.18;100.00;100453.88;5244133;28;20033;-68
2022/11/21 04:26:11;;;;;;;106.40;18.05;;;;;;;6.18;100.00;100445.25;5244159;28;20433;-68
2022/11/21 04:28:42;;;;;;;102.00;18.83;;;;;;;6.14;100.00;100451.59;5240961;28;20025;-68
2022/11/21 04:31:13;;;;;;;95.75;18.13;;;;;;;6.16;100.00;100441.94;5241711;28;20048;-68
2022/11/21 04:33:45;;;;;;;55.78;17.48;;;;;;;6.16;100.00;100429.75;5245300;28;20033;-69
2022/11/21 04:36:17;;;;;;;56.85;18.65;;;;;;;6.17;100.00;100422.78;5242375;28;20022;-69
2022/11/21 04:38:48;;;;;;;61.95;17.48;;;;;;;6.14;100.00;100423.00;5241610;28;20037;-69
2022/11/21 04:41:19;;;;;;;55.13;18.17;;;;;;;6.12;100.00;100420.50;5240089;28;20030;-69
2022/11/21 04:43:50;;;;;;;58.25;15.80;;;;;;;6.11;100.00;100412.84;5242423;28;20025;-69
2022/11/21 04:46:22;;;;;;;54.03;17.63;;;;;;;6.12;100.00;100417.09;5244337;28;20044;-69
2022/11/21 04:48:53;;;;;;;76.07;18.33;;;;;;;6.11;100.00;100408.47;5246960;28;20017;-69
2022/11/21 04:51:24;;;;;;;59.80;16.77;;;;;;;6.06;100.00;100410.53;5239536;28;20474;-69
2022/11/21 04:53:56;;;;;;;51.42;16.35;;;;;;;6.04;100.00;100412.44;5244519;28;20397;-68
2022/11/21 04:56:27;;;;;;;37.60;15.75;;;;;;;6.00;100.00;100408.41;5242364;28;20028;-69
2022/11/21 04:58:58;;;;;;;30.33;16.20;;;;;;;6.00;100.00;100404.03;5236808;28;20108;-67
2022/11/21 05:01:29;;;;;;;35.53;15.80;;;;;;;6.01;100.00;100410.88;5239792;28;20029;-69
2022/11/21 05:04:01;;;;;;;30.15;15.00;;;;;;;6.02;100.00;100414.31;5244998;28;20029;-69
2022/11/21 05:06:32;;;;;;;27.20;15.35;;;;;;;6.01;100.00;100405.69;5238482;28;20040;-69
2022/11/21 05:09:03;;;;;;;28.83;14.68;;;;;;;5.98;100.00;100408.50;5249711;28;20025;-69
2022/11/21 05:14:25;;;;;;;33.63;12.95;;;;;;;5.89;100.00;100401.34;5246817;28;20037;-69
2022/11/21 05:16:56;;;;;;;21.83;12.38;;;;;;;5.84;100.00;100393.88;5244477;28;20485;-69
2022/11/21 05:19:27;;;;;;;18.77;12.70;;;;;;;5.88;100.00;100391.91;5241664;28;20032;-69
2022/11/21 05:21:59;;;;;;;20.95;12.60;;;;;;;5.90;100.00;100389.19;5238848;28;20026;-68
2022/11/21 05:24:30;;;;;;;21.90;13.38;;;;;;;5.91;100.00;100396.88;5237522;28;20030;-69
2022/11/21 05:27:01;;;;;;;21.30;13.23;;;;;;;5.92;100.00;100393.38;5242445;28;20040;-68
2022/11/21 05:29:32;;;;;;;15.18;11.70;;;;;;;5.94;100.00;100388.88;5235511;28;20040;-69
2022/11/21 05:32:04;;;;;;;16.80;11.98;;;;;;;5.91;100.00;100367.44;5241613;28;20033;-67
2022/11/21 05:34:35;;;;;;;17.48;12.18;;;;;;;5.93;100.00;100379.41;5242831;28;20028;-69
2022/11/21 05:37:06;;;;;;;14.88;11.32;;;;;;;5.96;100.00;100375.78;5240627;28;20482;-69
2022/11/21 05:39:38;;;;;;;16.13;11.15;;;;;;;5.96;100.00;100370.56;5245549;28;20052;-69
2022/11/21 05:42:09;;;;;;;16.83;10.40;;;;;;;5.99;100.00;100365.97;5240803;28;20120;-68
2022/11/21 05:44:40;;;;;;;12.68;10.00;;;;;;;5.95;100.00;100368.94;5242252;28;20025;-68
2022/11/21 05:47:11;;;;;;;16.60;9.90;;;;;;;5.95;100.00;100369.75;5236216;28;20041;-68
2022/11/21 05:49:43;;;;;;;16.50;10.25;;;;;;;6.00;100.00;100372.84;5244443;28;20020;-69
2022/11/21 05:52:14;;;;;;;15.32;10.85;;;;;;;6.02;100.00;100365.75;5246647;28;20078;-69
2022/11/21 05:54:45;;;;;;;15.63;8.95;;;;;;;6.04;100.00;100366.47;5243922;28;20021;-69
2022/11/21 05:57:16;;;;;;;13.07;8.55;;;;;;;6.03;100.00;100358.78;5243680;28;20029;-69
2022/11/21 05:59:48;;;;;;;15.80;8.93;;;;;;;6.07;100.00;100352.41;5236810;28;20029;-68
2022/11/21 06:05:08;;;;;;;13.85;7.93;;;;;;;6.08;100.00;100349.69;5242213;28;20068;-69
2022/11/21 06:07:40;;;;;;;10.38;8.07;;;;;;;6.17;100.00;100365.56;5245102;28;20351;-68
2022/11/21 06:10:11;;;;;;;14.88;8.60;;;;;;;6.21;100.00;100361.78;5245075;28;20375;-69
2022/11/21 06:12:42;;;;;;;13.90;9.10;;;;;;;6.26;100.00;100362.28;5243547;28;20116;-69
2022/11/21 06:15:14;;;;;;;14.10;9.82;;;;;;;6.29;100.00;100357.69;5243610;28;20028;-69
2022/11/21 06:17:45;;;;;;;14.50;10.80;;;;;;;6.31;100.00;100354.97;5238643;28;20435;-69
2022/11/21 06:20:16;;;;;;;18.77;11.50;;;;;;;6.31;100.00;100353.19;5243066;28;20031;-68
2022/11/21 06:22:47;;;;;;;19.27;13.45;;;;;;;6.33;100.00;100348.69;5236799;28;20061;-69
2022/11/21 06:25:19;;;;;;;22.13;14.38;;;;;;;6.34;100.00;100347.75;5218857;28;20071;-67
2022/11/21 06:27:50;;;;;;;19.33;14.68;;;;;;;6.37;100.00;100340.66;5239874;28;20052;-69
2022/11/21 06:30:21;;;;;;;20.55;15.73;;;;;;;6.38;100.00;100340.53;5241763;28;20067;-69
2022/11/21 06:32:52;;;;;;;17.33;14.88;;;;;;;6.36;100.00;100339.00;5237824;28;20040;-69
2022/11/21 06:35:24;;;;;;;18.48;15.00;;;;;;;6.34;100.00;100336.53;5244594;28;20080;-69
2022/11/21 06:37:57;;;;;;;21.58;15.20;;;;;;;6.34;100.00;100328.72;5245269;28;20026;-68
2022/11/21 06:40:28;;;;;;;20.27;15.35;;;;;;;6.31;100.00;100332.38;5242240;28;20454;-67
2022/11/21 06:43:00;;;;;;;21.83;15.38;;;;;;;6.28;100.00;100330.00;5242638;28;20021;-69
2022/11/21 06:45:32;;;;;;;17.55;14.20;;;;;;;6.29;100.00;100336.06;5242728;28;20112;-67
2022/11/21 06:48:03;;;;;;;18.73;14.40;;;;;;;6.30;100.00;100333.31;5242396;28;20021;-69
2022/11/21 06:50:35;;;;;;;24.10;14.48;;;;;;;6.28;100.00;100323.97;5225988;28;20402;-69
2022/11/21 06:53:06;;;;;;;16.60;14.85;;;;;;;6.31;100.00;100326.34;5243133;28;20462;-68
2022/11/21 06:55:37;;;;;;;19.98;14.10;;;;;;;6.31;100.00;100328.94;5244084;28;20112;-69
2022/11/21 06:58:08;;;;;;;19.13;15.15;;;;;;;6.35;100.00;100332.97;5241903;28;20057;-69
2022/11/21 07:00:40;;;;;;;17.52;14.25;;;;;;;6.37;100.00;100319.88;5243637;28;20029;-69
2022/11/21 07:03:11;;;;;;;17.42;13.52;;;;;;;6.32;100.00;100315.81;5240566;28;20430;-68
2022/11/21 07:05:42;;;;;;;20.70;13.95;;;;;;;6.34;100.00;100320.91;5238658;28;20490;-69
2022/11/21 07:08:14;;;;;;;20.17;13.05;;;;;;;6.31;100.00;100318.53;5242988;28;20116;-68
2022/11/21 07:10:45;;;;;;;21.55;13.05;;;;;;;6.24;100.00;100318.16;5242859;28;20032;-68
2022/11/21 07:13:22;;;;;;;23.20;13.38;;;;;;;6.22;100.00;100307.06;5241932;28;20036;-69
2022/11/21 07:15:59;;;;;;;17.45;12.93;;;;;;;6.26;100.00;100310.25;5241860;28;20064;-68
2022/11/21 07:18:30;;;;;;;18.83;11.88;;;;;;;6.21;100.00;100312.34;5238286;28;20549;-69
2022/11/21 07:21:04;;;;;;;16.30;11.73;;;;;;;6.28;100.00;100311.78;5239684;28;20025;-69
2022/11/21 07:23:36;;;;;;;16.08;11.75;;;;;;;6.20;100.00;100301.13;5237778;28;20546;-69
2022/11/21 07:26:09;;;;;;;16.67;11.73;;;;;;;6.28;100.00;100305.75;5237050;28;20634;-69
2022/11/21 07:28:40;;;;;;;18.05;12.18;;;;;;;6.26;100.00;100308.47;5216155;28;20024;-69
2022/11/21 07:31:11;;;;;;;16.30;11.52;;;;;;;6.29;100.00;100307.44;5242491;28;20470;-68
2022/11/21 07:33:44;;;;;;;15.93;11.55;;;;;;;6.30;100.00;100298.69;5231828;28;20080;-69
2022/11/21 07:36:15;;;;;;;18.15;11.60;;;;;;;6.30;100.00;100302.09;5239537;28;20033;-68
2022/11/21 07:38:47;;;;;;;16.60;10.90;;;;;;;6.34;100.00;100306.13;5238541;28;20101;-69
2022/11/21 07:41:18;;;;;;;21.25;11.10;;;;;;;6.39;100.00;100310.16;5243664;28;20421;-69
2022/11/21 07:43:49;;;;;;;15.02;9.95;;;;;;;6.38;100.00;100305.91;5245967;28;20429;-69
2022/11/21 07:46:20;;;;;;;18.02;9.82;;;;;;;6.43;100.00;100309.78;5242686;28;20375;-68
2022/11/21 07:48:52;;;;;;;15.85;9.13;;;;;;;6.44;100.00;100311.47;5250290;28;20040;-69
2022/11/21 07:51:23;;;;;;;13.23;9.38;;;;;;;6.48;100.00;100302.50;5236417;28;20558;-69
2022/11/21 07:53:54;;;;;;;12.00;8.45;;;;;;;6.50;100.00;100308.38;5238775;28;20405;-68
2022/11/21 07:56:26;;;;;;;20.25;8.15;;;;;;;6.53;100.00;100299.53;5240079;28;20643;-69
2022/11/21 07:58:57;;;;;;;15.55;8.23;;;;;;;6.54;100.00;100296.78;5239962;28;20510;-67
2022/11/21 08:01:28;;;;;;;12.18;7.57;;;;;;;6.55;100.00;100287.22;5237300;28;20076;-69
2022/11/21 08:03:59;;;;;;;13.05;7.60;;;;;;;6.57;100.00;100290.53;5240591;28;20024;-69
2022/11/21 08:06:31;;;;;;;14.77;6.45;;;;;;;6.58;100.00;100287.81;5242852;28;20070;-69
2022/11/21 08:09:02;;;;;;;11.68;7.05;;;;;;;6.55;100.00;100277.66;5239731;28;20029;-69
2022/11/21 08:11:35;;;;;;;14.38;6.68;;;;;;;6.57;100.00;100283.56;5247895;28;20037;-69
2022/11/21 08:14:06;;;;;;;12.48;7.25;;;;;;;6.53;100.00;100292.53;5242761;28;20021;-69
2022/11/21 08:16:38;;;;;;;14.65;7.30;;;;;;;6.51;100.00;100291.81;5242168;28;20465;-68
2022/11/21 08:19:09;;;;;;;14.70;6.65;;;;;;;6.51;100.00;100291.81;5240215;28;20493;-69
2022/11/21 08:21:40;;;;;;;11.75;5.93;;;;;;;6.45;100.00;100281.06;5243895;28;20021;-69
2022/11/21 08:24:13;;;;;;;12.32;6.78;;;;;;;6.45;100.00;100286.28;5239421;28;20052;-69
2022/11/21 08:26:45;;;;;;;12.45;6.53;;;;;;;6.52;100.00;100272.69;5236577;28;20041;-68
2022/11/21 08:29:16;;;;;;;13.07;5.50;;;;;;;6.49;100.00;100262.50;5238744;28;20029;-70
2022/11/21 08:31:47;;;;;;;12.70;5.82;;;;;;;6.44;100.00;100264.63;5240442;28;20013;-68
2022/11/21 08:34:19;;;;;;;11.00;5.32;;;;;;;6.44;100.00;100259.44;5239815;28;20025;-69
2022/11/21 08:36:50;;;;;;;11.27;5.30;;;;;;;6.45;100.00;100248.06;5242511;28;20061;-68
2022/11/21 08:39:21;;;;;;;13.32;5.05;;;;;;;6.42;100.00;100245.69;5245012;28;20033;-69
2022/11/21 08:42:01;;;;;;;10.48;4.88;;;;;;;6.41;100.00;100249.25;5235067;28;20445;-69
2022/11/21 08:44:33;;;;;;;13.57;5.18;;;;;;;6.40;100.00;100242.38;5237223;28;20044;-69
2022/11/21 08:47:05;;;;;;;9.80;5.03;;;;;;;6.40;100.00;100247.56;5241593;28;20033;-70
2022/11/21 08:49:36;;;;;;;9.18;5.15;;;;;;;6.43;100.00;100249.94;5232406;28;20028;-70
2022/11/21 08:52:08;;;;;;;8.45;4.70;;;;;;;6.44;100.00;100254.22;5238566;28;20025;-70
2022/11/21 08:54:39;;;;;;;17.08;4.88;;;;;;;6.48;100.00;100240.03;5235742;28;20028;-70
2022/11/21 08:57:11;;;;;;;11.25;4.78;;;;;;;6.56;100.00;100250.66;5241826;28;20521;-70
2022/11/21 08:59:42;;;;;;;12.18;5.57;;;;;;;6.56;100.00;100237.66;5235582;28;20052;-70
2022/11/21 09:02:13;;;;;;;14.50;5.18;;;;;;;6.57;100.00;100234.09;5235986;28;20013;-70
2022/11/21 09:04:45;;;;;;;7.20;4.40;;;;;;;6.61;100.00;100229.50;5241404;28;20565;-70
2022/11/21 09:07:16;;;;;;;10.35;4.97;;;;;;;6.65;100.00;100224.88;5242999;28;20539;-70
2022/11/21 09:09:47;;;;;;;8.93;4.60;;;;;;;6.67;100.00;100230.81;5238683;28;20446;-70
2022/11/21 09:12:19;;;;;;;11.65;4.50;;;;;;;6.66;100.00;100226.53;5241043;28;20532;-70
2022/11/21 09:20:32;;;;;;;11.68;4.88;;;;;;;6.77;100.00;100226.50;5242124;28;20445;-70
2022/11/21 09:23:05;;;;;;;13.82;5.15;;;;;;;6.76;100.00;100227.47;5239944;28;20033;-70
2022/11/21 09:25:37;;;;;;;15.68;5.20;;;;;;;6.80;100.00;100218.47;5236771;28;20061;-70
2022/11/21 09:28:10;;;;;;;10.68;4.55;;;;;;;6.85;100.00;100220.69;5242091;28;20099;-70
2022/11/21 09:30:42;;;;;;;13.38;5.18;;;;;;;6.89;100.00;100222.94;5244628;28;20474;-70
2022/11/21 09:33:15;;;;;;;12.10;4.57;;;;;;;6.89;100.00;100215.13;5242795;28;20044;-70
2022/11/21 09:35:46;;;;;;;7.60;4.35;;;;;;;6.93;100.00;100197.47;5237864;28;20021;-70
2022/11/21 09:38:18;;;;;;;9.77;4.35;;;;;;;6.96;100.00;100200.66;5240662;28;20021;-70
2022/11/21 09:40:49;;;;;;;11.10;4.47;;;;;;;7.01;100.00;100188.13;5239459;28;20029;-70
2022/11/21 09:43:44;;;;;;;9.90;4.80;;;;;;;7.23;100.00;100199.38;5239372;28;20029;-70
2022/11/21 09:46:20;;;;;;;8.35;4.18;;;;;;;7.13;100.00;100193.28;5238948;28;20449;-70
2022/11/21 09:48:57;;;;;;;11.48;4.70;;;;;;;7.13;100.00;100201.09;5245301;28;20044;-70
2022/11/21 09:51:30;;;;;;;12.52;5.45;;;;;;;7.10;100.00;100189.16;5239704;28;20025;-70
2022/11/21 09:54:13;;;;;;;12.23;4.47;;;;;;;7.22;100.00;100184.72;5238804;28;20071;-70
2022/11/21 09:56:46;;;;;;;11.60;4.72;;;;;;;7.24;100.00;100185.44;5238812;28;20041;-70
2022/11/21 09:59:34;;;;;;;11.18;4.22;;;;;;;7.43;100.00;100179.53;5241004;28;20079;-70
2022/11/21 10:02:14;;;;;;;12.10;4.47;;;;;;;7.41;100.00;100179.66;5243645;28;20037;-70
2022/11/21 10:04:47;;;;;;;10.60;4.53;;;;;;;7.39;100.00;100184.19;5238762;28;20025;-70
2022/11/21 10:07:25;;;;;;;10.68;4.28;;;;;;;7.48;100.00;100180.81;5240863;28;20374;-70
2022/11/21 10:10:40;;;;;;;12.63;3.92;;;;;;;7.64;100.00;100169.94;5239679;28;20430;-70
2022/11/21 10:13:12;;;;;;;10.30;3.95;;;;;;;7.55;100.00;100171.53;5220062;28;20044;-70
2022/11/21 10:15:57;;;;;;;9.30;3.97;;;;;;;7.76;100.00;100157.66;5241056;28;20030;-70
2022/11/21 10:19:04;;;;;;;11.50;3.90;;;;;;;7.84;100.00;100155.25;5241260;28;20656;-70
2022/11/21 10:22:07;;;;;;;11.63;3.88;;;;;;;7.90;100.00;100149.50;5238305;28;20032;-70
2022/11/21 10:24:53;;;;;;;6.72;4.00;;;;;;;7.82;100.00;100141.50;5238600;28;20052;-70
2022/11/21 10:27:33;;;;;;;9.52;3.83;;;;;;;7.85;100.00;100136.03;5241107;28;20040;-70
2022/11/21 10:30:13;;;;;;;9.10;3.75;;;;;;;7.86;100.00;100132.44;5237603;28;20033;-70
2022/11/21 10:32:56;;;;;;;9.45;3.33;;;;;;;8.00;100.00;100133.91;5234315;28;20033;-70
2022/11/21 10:35:38;;;;;;;9.43;3.60;;;;;;;8.00;100.00;100129.50;5239686;28;20040;-70
2022/11/21 10:38:24;;;;;;;8.90;3.60;;;;;;;8.07;100.00;100121.97;5240783;28;20291;-70
2022/11/21 10:41:23;;;;;;;10.18;3.72;;;;;;;8.02;100.00;100121.53;5237625;28;20045;-70
2022/11/21 10:47:28;;;;;;;8.13;3.55;;;;;;;8.13;100.00;100115.41;5239421;28;20437;-70
2022/11/21 10:50:09;;;;;;;12.15;4.28;;;;;;;8.22;100.00;100109.38;5236501;28;20040;-70
2022/11/21 10:53:01;;;;;;;21.05;4.00;;;;;;;8.28;100.00;100108.84;5234552;28;20033;-70
2022/11/21 10:55:32;;;;;;;12.38;3.70;;;;;;;8.27;100.00;100097.59;5234712;28;20417;-70
2022/11/21 10:58:17;;;;;;;9.07;3.70;;;;;;;8.56;100.00;100096.88;5236654;28;20041;-70
2022/11/21 11:00:57;;;;;;;9.32;3.33;;;;;;;8.63;100.00;100087.50;5234185;28;20108;-70
2022/11/21 11:03:30;;;;;;;8.98;3.72;;;;;;;8.60;100.00;100086.94;5234827;28;20037;-70
2022/11/21 11:06:01;;;;;;;;;;;;;;;9.14;100.00;100086.41;5237255;28;20090;-70
2022/11/21 11:08:50;;;;;;;8.03;3.67;;;;;;;8.89;100.00;100076.53;5237400;28;20005;-70
2022/11/21 11:11:24;;;;;;;10.13;3.97;;;;;;;8.80;100.00;100077.38;5240341;28;20379;-70
2022/11/21 11:14:00;;;;;;;8.23;2.92;;;;;;;8.84;100.00;100076.13;5245184;28;20079;-70
2022/11/21 11:16:35;;;;;;;11.27;3.78;;;;;;;8.98;100.00;100075.72;5244919;28;20075;-70
2022/11/21 11:19:23;;;;;;;9.60;3.55;;;;;;;9.22;100.00;100064.81;5246086;28;20048;-70
2022/11/21 11:21:55;;;;;;;8.68;3.35;;;;;;;9.14;100.00;100055.06;5243037;28;20055;-70
2022/11/21 11:24:26;;;;;;;9.93;4.32;;;;;;;9.16;100.00;100054.91;5244587;28;20382;-70
2022/11/21 11:27:00;;;;;;;10.10;4.00;;;;;;;9.23;100.00;100050.78;5239707;28;20490;-70
2022/11/21 11:29:34;;;;;;;8.30;3.90;;;;;;;9.25;100.00;100051.47;5240236;28;20029;-70
2022/11/21 11:32:17;;;;;;;8.52;3.42;;;;;;;9.45;100.00;100042.59;5245115;28;20079;-70
2022/11/21 11:35:08;;;;;;;;;;;;;;;9.89;100.00;100037.63;5242931;28;20021;-70
2022/11/21 11:37:40;;;;;;;14.90;4.05;;;;;;;9.34;100.00;100034.09;5244067;28;19928;-70
2022/11/21 11:40:27;;;;;;;7.28;2.78;;;;;;;9.46;100.00;100018.09;5244237;28;20176;-70
2022/11/21 11:52:36;;;;;;;7.25;2.90;;;;;;;9.30;100.00;99986.50;5245941;28;20041;-70
2022/11/21 11:55:25;;;;;;;5.68;2.70;;;;;;;9.42;100.00;99972.28;5240945;28;20017;-70
2022/11/21 11:57:59;;;;;;;7.55;2.55;;;;;;;9.32;100.00;99981.13;5243821;28;20120;-70
2022/11/21 12:00:43;;;;;;;8.30;2.70;;;;;;;9.47;100.00;99974.47;5245565;28;20033;-70
2022/11/21 12:03:20;;;;;;;7.97;2.85;;;;;;;9.46;100.00;99964.97;5237105;28;20029;-70
2022/11/21 12:06:17;;;;;;;8.80;2.53;;;;;;;9.60;100.00;99961.91;5246316;28;20137;-70
2022/11/21 12:08:53;;;;;;;6.55;3.03;;;;;;;9.38;100.00;99951.81;5232260;28;20413;-70
2022/11/21 12:18:01;;;;;;;10.07;2.45;;;;;;;9.46;100.00;99923.16;5245372;28;20045;-70